sensor_id;sensor_type;location;lat;lon;timestamp;temperature;humidity
47162;DHT22;32921;53.256;8.198;2023-06-10T00:00:12;13.20;99.90
47162;DHT22;32921;53.256;8.198;2023-06-10T00:02:40;13.10;99.90
47162;DHT22;32921;53.256;8.198;2023-06-10T00:05:06;13.00;99.90
47162;DHT22;32921;53.256;8.198;2023-06-10T00:07:33;13.10;99.90
47162;DHT22;32921;53.256;8.198;2023-06-10T00:10:06;12.90;99.90
47162;DHT22;32921;53.256;8.198;2023-06-10T00:12:32;12.70;99.90
47162;DHT22;32921;53.256;8.198;2023-06-10T00:15:03;12.60;99.90
47162;DHT22;32921;53.256;8.198;2023-06-10T00:17:28;12.70;99.90
47162;DHT22;32921;53.256;8.198;2023-06-10T00:19:54;12.80;99.90
47162;DHT22;32921;53.256;8.198;2023-06-10T00:22:20;12.70;99.90
47162;DHT22;32921;53.256;8.198;2023-06-10T00:24:47;12.60;99.90
47162;DHT22;32921;53.256;8.198;2023-06-10T00:27:13;12.50;99.90
47162;DHT22;32921;53.256;8.198;2023-06-10T00:29:39;12.50;99.90
47162;DHT22;32921;53.256;8.198;2023-06-10T00:32:04;12.50;99.90
47162;DHT22;32921;53.256;8.198;2023-06-10T00:34:30;12.30;99.90
47162;DHT22;32921;53.256;8.198;2023-06-10T00:36:57;12.30;99.90
47162;DHT22;32921;53.256;8.198;2023-06-10T00:39:23;12.30;99.90
47162;DHT22;32921;53.256;8.198;2023-06-10T00:41:49;12.20;99.90
47162;DHT22;32921;53.256;8.198;2023-06-10T00:44:15;12.40;99.90
47162;DHT22;32921;53.256;8.198;2023-06-10T00:46:41;12.30;99.90
47162;DHT22;32921;53.256;8.198;2023-06-10T00:49:07;12.30;99.90
47162;DHT22;32921;53.256;8.198;2023-06-10T00:51:34;12.40;99.90
47162;DHT22;32921;53.256;8.198;2023-06-10T00:54:00;12.20;99.90
47162;DHT22;32921;53.256;8.198;2023-06-10T00:56:26;12.30;99.90
47162;DHT22;32921;53.256;8.198;2023-06-10T00:58:52;12.20;99.90
47162;DHT22;32921;53.256;8.198;2023-06-10T01:01:17;12.20;99.90
47162;DHT22;32921;53.256;8.198;2023-06-10T01:03:45;12.20;99.90
47162;DHT22;32921;53.256;8.198;2023-06-10T01:08:41;12.20;99.90
47162;DHT22;32921;53.256;8.198;2023-06-10T01:11:18;12.20;99.90
47162;DHT22;32921;53.256;8.198;2023-06-10T01:13:45;12.10;99.90
47162;DHT22;32921;53.256;8.198;2023-06-10T01:16:11;12.10;99.90
47162;DHT22;32921;53.256;8.198;2023-06-10T01:18:40;12.10;99.90
47162;DHT22;32921;53.256;8.198;2023-06-10T01:21:05;12.00;99.90
47162;DHT22;32921;53.256;8.198;2023-06-10T01:23:33;12.20;99.90
47162;DHT22;32921;53.256;8.198;2023-06-10T01:26:09;12.10;99.90
47162;DHT22;32921;53.256;8.198;2023-06-10T01:28:48;12.20;99.90
47162;DHT22;32921;53.256;8.198;2023-06-10T01:34:03;12.30;99.90
47162;DHT22;32921;53.256;8.198;2023-06-10T01:36:32;12.30;99.90
47162;DHT22;32921;53.256;8.198;2023-06-10T01:38:59;12.20;99.90
47162;DHT22;32921;53.256;8.198;2023-06-10T01:41:26;12.10;99.90
47162;DHT22;32921;53.256;8.198;2023-06-10T01:43:52;12.20;99.90
47162;DHT22;32921;53.256;8.198;2023-06-10T01:46:17;12.20;99.90
47162;DHT22;32921;53.256;8.198;2023-06-10T01:48:45;12.20;99.90
47162;DHT22;32921;53.256;8.198;2023-06-10T01:51:10;12.20;99.90
47162;DHT22;32921;53.256;8.198;2023-06-10T01:53:36;12.30;99.90
47162;DHT22;32921;53.256;8.198;2023-06-10T01:56:01;12.20;99.90
47162;DHT22;32921;53.256;8.198;2023-06-10T01:58:27;12.20;99.90
47162;DHT22;32921;53.256;8.198;2023-06-10T02:00:52;12.10;99.90
47162;DHT22;32921;53.256;8.198;2023-06-10T02:03:18;12.20;99.90
47162;DHT22;32921;53.256;8.198;2023-06-10T02:05:44;12.10;99.90
47162;DHT22;32921;53.256;8.198;2023-06-10T02:08:09;12.10;99.90
47162;DHT22;32921;53.256;8.198;2023-06-10T02:10:35;12.10;99.90
47162;DHT22;32921;53.256;8.198;2023-06-10T02:13:00;12.10;99.90
47162;DHT22;32921;53.256;8.198;2023-06-10T02:15:26;12.10;99.90
47162;DHT22;32921;53.256;8.198;2023-06-10T02:17:52;11.90;99.90
47162;DHT22;32921;53.256;8.198;2023-06-10T02:20:18;12.00;99.90
47162;DHT22;32921;53.256;8.198;2023-06-10T02:22:44;12.00;99.90
47162;DHT22;32921;53.256;8.198;2023-06-10T02:25:09;12.00;99.90
47162;DHT22;32921;53.256;8.198;2023-06-10T02:27:35;11.90;99.90
47162;DHT22;32921;53.256;8.198;2023-06-10T02:30:01;11.90;99.90
47162;DHT22;32921;53.256;8.198;2023-06-10T02:32:26;11.80;99.90
47162;DHT22;32921;53.256;8.198;2023-06-10T02:34:53;11.90;99.90
47162;DHT22;32921;53.256;8.198;2023-06-10T02:37:19;11.90;99.90
47162;DHT22;32921;53.256;8.198;2023-06-10T02:39:45;11.90;99.90
47162;DHT22;32921;53.256;8.198;2023-06-10T02:42:11;11.90;99.90
47162;DHT22;32921;53.256;8.198;2023-06-10T02:44:37;11.80;99.90
47162;DHT22;32921;53.256;8.198;2023-06-10T02:47:03;11.90;99.90
47162;DHT22;32921;53.256;8.198;2023-06-10T02:49:29;11.80;99.90
47162;DHT22;32921;53.256;8.198;2023-06-10T02:51:54;11.80;99.90
47162;DHT22;32921;53.256;8.198;2023-06-10T02:54:22;11.90;99.90
47162;DHT22;32921;53.256;8.198;2023-06-10T02:56:51;11.90;99.90
47162;DHT22;32921;53.256;8.198;2023-06-10T02:59:17;11.80;99.90
47162;DHT22;32921;53.256;8.198;2023-06-10T03:01:43;11.70;99.90
47162;DHT22;32921;53.256;8.198;2023-06-10T03:04:09;11.70;99.90
47162;DHT22;32921;53.256;8.198;2023-06-10T03:06:35;11.80;99.90
47162;DHT22;32921;53.256;8.198;2023-06-10T03:09:02;11.70;99.90
47162;DHT22;32921;53.256;8.198;2023-06-10T03:11:30;11.70;99.90
47162;DHT22;32921;53.256;8.198;2023-06-10T03:13:56;11.70;99.90
47162;DHT22;32921;53.256;8.198;2023-06-10T03:16:22;11.80;99.90
47162;DHT22;32921;53.256;8.198;2023-06-10T03:18:48;11.90;99.90
47162;DHT22;32921;53.256;8.198;2023-06-10T03:21:14;11.80;99.90
47162;DHT22;32921;53.256;8.198;2023-06-10T03:23:39;11.90;99.90
47162;DHT22;32921;53.256;8.198;2023-06-10T03:26:05;11.70;99.90
47162;DHT22;32921;53.256;8.198;2023-06-10T03:28:31;11.70;99.90
47162;DHT22;32921;53.256;8.198;2023-06-10T03:30:57;11.80;99.90
47162;DHT22;32921;53.256;8.198;2023-06-10T03:33:22;11.80;99.90
47162;DHT22;32921;53.256;8.198;2023-06-10T03:35:48;11.80;99.90
47162;DHT22;32921;53.256;8.198;2023-06-10T03:38:14;11.70;99.90
47162;DHT22;32921;53.256;8.198;2023-06-10T03:40:40;11.70;99.90
47162;DHT22;32921;53.256;8.198;2023-06-10T03:43:05;11.70;99.90
47162;DHT22;32921;53.256;8.198;2023-06-10T03:45:31;11.70;99.90
47162;DHT22;32921;53.256;8.198;2023-06-10T03:47:57;11.80;99.90
47162;DHT22;32921;53.256;8.198;2023-06-10T03:50:23;11.70;99.90
47162;DHT22;32921;53.256;8.198;2023-06-10T03:52:50;11.80;99.90
47162;DHT22;32921;53.256;8.198;2023-06-10T03:55:15;11.80;99.90
47162;DHT22;32921;53.256;8.198;2023-06-10T03:57:42;11.90;99.90
47162;DHT22;32921;53.256;8.198;2023-06-10T04:00:08;12.00;99.90
47162;DHT22;32921;53.256;8.198;2023-06-10T04:02:37;12.10;99.90
47162;DHT22;32921;53.256;8.198;2023-06-10T04:05:03;12.00;99.90
47162;DHT22;32921;53.256;8.198;2023-06-10T04:07:28;12.10;99.90
47162;DHT22;32921;53.256;8.198;2023-06-10T04:09:54;12.10;99.90
47162;DHT22;32921;53.256;8.198;2023-06-10T04:12:20;12.10;99.90
47162;DHT22;32921;53.256;8.198;2023-06-10T04:14:48;12.10;99.90
47162;DHT22;32921;53.256;8.198;2023-06-10T04:17:13;12.10;99.90
47162;DHT22;32921;53.256;8.198;2023-06-10T04:19:39;12.20;99.90
47162;DHT22;32921;53.256;8.198;2023-06-10T04:22:05;12.10;99.90
47162;DHT22;32921;53.256;8.198;2023-06-10T04:24:30;12.10;99.90
47162;DHT22;32921;53.256;8.198;2023-06-10T04:26:56;12.20;99.90
47162;DHT22;32921;53.256;8.198;2023-06-10T04:29:22;12.20;99.90
47162;DHT22;32921;53.256;8.198;2023-06-10T04:31:47;12.20;99.90
47162;DHT22;32921;53.256;8.198;2023-06-10T04:34:14;12.20;99.90
47162;DHT22;32921;53.256;8.198;2023-06-10T04:36:39;12.20;99.90
47162;DHT22;32921;53.256;8.198;2023-06-10T04:39:05;12.30;99.90
47162;DHT22;32921;53.256;8.198;2023-06-10T04:41:31;12.30;99.90
47162;DHT22;32921;53.256;8.198;2023-06-10T04:43:56;12.40;99.90
47162;DHT22;32921;53.256;8.198;2023-06-10T04:46:23;12.40;99.90
47162;DHT22;32921;53.256;8.198;2023-06-10T04:48:49;12.40;99.90
47162;DHT22;32921;53.256;8.198;2023-06-10T04:51:15;12.50;99.90
47162;DHT22;32921;53.256;8.198;2023-06-10T04:53:40;12.50;99.90
47162;DHT22;32921;53.256;8.198;2023-06-10T04:56:06;12.50;99.90
47162;DHT22;32921;53.256;8.198;2023-06-10T04:58:33;12.60;99.90
47162;DHT22;32921;53.256;8.198;2023-06-10T05:00:58;12.60;99.90
47162;DHT22;32921;53.256;8.198;2023-06-10T05:03:25;12.70;99.90
47162;DHT22;32921;53.256;8.198;2023-06-10T05:05:50;12.70;99.90
47162;DHT22;32921;53.256;8.198;2023-06-10T05:08:16;12.80;99.90
47162;DHT22;32921;53.256;8.198;2023-06-10T05:10:41;13.20;99.90
47162;DHT22;32921;53.256;8.198;2023-06-10T05:13:07;13.60;99.90
47162;DHT22;32921;53.256;8.198;2023-06-10T05:15:33;13.90;99.90
47162;DHT22;32921;53.256;8.198;2023-06-10T05:17:58;14.30;99.90
47162;DHT22;32921;53.256;8.198;2023-06-10T05:20:24;14.60;99.90
47162;DHT22;32921;53.256;8.198;2023-06-10T05:22:50;14.90;99.90
47162;DHT22;32921;53.256;8.198;2023-06-10T05:25:16;15.20;99.90
47162;DHT22;32921;53.256;8.198;2023-06-10T05:27:42;15.40;99.90
47162;DHT22;32921;53.256;8.198;2023-06-10T05:30:09;15.50;99.90
47162;DHT22;32921;53.256;8.198;2023-06-10T05:32:35;15.70;99.90
47162;DHT22;32921;53.256;8.198;2023-06-10T05:35:01;15.90;99.90
47162;DHT22;32921;53.256;8.198;2023-06-10T05:37:27;16.00;99.90
47162;DHT22;32921;53.256;8.198;2023-06-10T05:39:52;15.60;99.90
47162;DHT22;32921;53.256;8.198;2023-06-10T05:42:18;15.30;99.90
47162;DHT22;32921;53.256;8.198;2023-06-10T05:44:43;15.20;99.90
47162;DHT22;32921;53.256;8.198;2023-06-10T05:47:09;15.20;99.90
47162;DHT22;32921;53.256;8.198;2023-06-10T05:49:34;15.20;99.90
47162;DHT22;32921;53.256;8.198;2023-06-10T05:52:00;15.30;99.90
47162;DHT22;32921;53.256;8.198;2023-06-10T05:54:26;15.30;99.90
47162;DHT22;32921;53.256;8.198;2023-06-10T05:56:52;15.50;99.90
47162;DHT22;32921;53.256;8.198;2023-06-10T05:59:17;15.90;99.90
47162;DHT22;32921;53.256;8.198;2023-06-10T06:01:43;16.30;99.90
47162;DHT22;32921;53.256;8.198;2023-06-10T06:04:09;16.50;99.90
47162;DHT22;32921;53.256;8.198;2023-06-10T06:06:35;16.90;99.90
47162;DHT22;32921;53.256;8.198;2023-06-10T06:09:01;16.70;99.90
47162;DHT22;32921;53.256;8.198;2023-06-10T06:11:26;16.40;99.90
47162;DHT22;32921;53.256;8.198;2023-06-10T06:13:52;16.70;99.90
47162;DHT22;32921;53.256;8.198;2023-06-10T06:16:18;17.10;99.90
47162;DHT22;32921;53.256;8.198;2023-06-10T06:18:44;17.10;99.90
47162;DHT22;32921;53.256;8.198;2023-06-10T06:21:09;17.30;99.90
47162;DHT22;32921;53.256;8.198;2023-06-10T06:23:35;17.10;99.90
47162;DHT22;32921;53.256;8.198;2023-06-10T06:26:00;16.60;99.90
47162;DHT22;32921;53.256;8.198;2023-06-10T06:28:27;16.50;99.90
47162;DHT22;32921;53.256;8.198;2023-06-10T06:30:55;16.50;99.90
47162;DHT22;32921;53.256;8.198;2023-06-10T06:33:21;17.00;99.90
47162;DHT22;32921;53.256;8.198;2023-06-10T06:35:46;17.30;99.90
47162;DHT22;32921;53.256;8.198;2023-06-10T06:38:12;18.20;99.90
47162;DHT22;32921;53.256;8.198;2023-06-10T06:40:38;18.90;98.10
47162;DHT22;32921;53.256;8.198;2023-06-10T06:43:03;18.70;95.60
47162;DHT22;32921;53.256;8.198;2023-06-10T06:45:29;18.60;96.10
47162;DHT22;32921;53.256;8.198;2023-06-10T06:47:55;18.50;95.80
47162;DHT22;32921;53.256;8.198;2023-06-10T06:50:21;19.30;94.60
47162;DHT22;32921;53.256;8.198;2023-06-10T06:52:47;19.40;92.90
47162;DHT22;32921;53.256;8.198;2023-06-10T06:55:12;19.70;91.50
47162;DHT22;32921;53.256;8.198;2023-06-10T06:57:38;19.80;91.20
47162;DHT22;32921;53.256;8.198;2023-06-10T07:00:04;20.20;90.30
47162;DHT22;32921;53.256;8.198;2023-06-10T07:02:30;20.60;87.40
47162;DHT22;32921;53.256;8.198;2023-06-10T07:04:57;21.10;86.00
47162;DHT22;32921;53.256;8.198;2023-06-10T07:07:24;21.10;82.80
47162;DHT22;32921;53.256;8.198;2023-06-10T07:09:50;20.70;82.90
47162;DHT22;32921;53.256;8.198;2023-06-10T07:12:15;20.40;85.20
47162;DHT22;32921;53.256;8.198;2023-06-10T07:14:41;20.40;84.80
47162;DHT22;32921;53.256;8.198;2023-06-10T07:17:07;20.90;83.00
47162;DHT22;32921;53.256;8.198;2023-06-10T07:19:32;21.10;80.70
47162;DHT22;32921;53.256;8.198;2023-06-10T07:21:58;20.80;80.60
47162;DHT22;32921;53.256;8.198;2023-06-10T07:24:24;20.80;81.60
47162;DHT22;32921;53.256;8.198;2023-06-10T07:26:50;21.60;79.50
47162;DHT22;32921;53.256;8.198;2023-06-10T07:29:16;21.60;79.10
47162;DHT22;32921;53.256;8.198;2023-06-10T07:31:41;21.70;77.80
47162;DHT22;32921;53.256;8.198;2023-06-10T07:34:07;21.00;81.30
47162;DHT22;32921;53.256;8.198;2023-06-10T07:36:33;21.50;78.00
47162;DHT22;32921;53.256;8.198;2023-06-10T07:38:58;21.80;77.00
47162;DHT22;32921;53.256;8.198;2023-06-10T07:41:24;22.00;75.60
47162;DHT22;32921;53.256;8.198;2023-06-10T07:43:53;21.80;77.70
47162;DHT22;32921;53.256;8.198;2023-06-10T07:46:22;21.60;76.60
47162;DHT22;32921;53.256;8.198;2023-06-10T07:48:48;21.10;78.30
47162;DHT22;32921;53.256;8.198;2023-06-10T07:51:16;21.80;77.20
47162;DHT22;32921;53.256;8.198;2023-06-10T07:53:41;20.90;79.30
47162;DHT22;32921;53.256;8.198;2023-06-10T07:56:07;20.60;82.50
47162;DHT22;32921;53.256;8.198;2023-06-10T07:58:32;20.50;80.70
47162;DHT22;32921;53.256;8.198;2023-06-10T08:00:58;21.00;82.60
47162;DHT22;32921;53.256;8.198;2023-06-10T08:03:23;21.80;80.30
47162;DHT22;32921;53.256;8.198;2023-06-10T08:05:49;22.30;76.40
47162;DHT22;32921;53.256;8.198;2023-06-10T08:08:15;22.10;78.50
47162;DHT22;32921;53.256;8.198;2023-06-10T08:10:40;22.50;75.90
47162;DHT22;32921;53.256;8.198;2023-06-10T08:13:07;23.20;72.40
47162;DHT22;32921;53.256;8.198;2023-06-10T08:15:33;24.20;68.00
47162;DHT22;32921;53.256;8.198;2023-06-10T08:17:58;24.30;66.50
47162;DHT22;32921;53.256;8.198;2023-06-10T08:20:24;23.60;67.50
47162;DHT22;32921;53.256;8.198;2023-06-10T08:22:50;23.70;67.20
47162;DHT22;32921;53.256;8.198;2023-06-10T08:25:15;24.40;66.90
47162;DHT22;32921;53.256;8.198;2023-06-10T08:27:41;24.70;65.00
47162;DHT22;32921;53.256;8.198;2023-06-10T08:30:07;23.60;67.10
47162;DHT22;32921;53.256;8.198;2023-06-10T08:32:33;24.50;65.50
47162;DHT22;32921;53.256;8.198;2023-06-10T08:34:59;24.00;64.00
47162;DHT22;32921;53.256;8.198;2023-06-10T08:37:24;23.50;68.50
47162;DHT22;32921;53.256;8.198;2023-06-10T08:39:50;23.60;67.40
47162;DHT22;32921;53.256;8.198;2023-06-10T08:42:30;23.00;68.90
47162;DHT22;32921;53.256;8.198;2023-06-10T08:44:58;24.50;67.20
47162;DHT22;32921;53.256;8.198;2023-06-10T08:47:29;25.70;61.30
47162;DHT22;32921;53.256;8.198;2023-06-10T08:49:57;26.60;59.90
47162;DHT22;32921;53.256;8.198;2023-06-10T08:52:34;26.50;58.10
47162;DHT22;32921;53.256;8.198;2023-06-10T08:55:10;25.40;58.50
47162;DHT22;32921;53.256;8.198;2023-06-10T08:57:37;24.20;62.50
47162;DHT22;32921;53.256;8.198;2023-06-10T09:00:03;24.60;62.20
47162;DHT22;32921;53.256;8.198;2023-06-10T09:02:33;25.00;61.50
47162;DHT22;32921;53.256;8.198;2023-06-10T09:05:01;25.30;60.30
47162;DHT22;32921;53.256;8.198;2023-06-10T09:07:29;25.80;59.50
47162;DHT22;32921;53.256;8.198;2023-06-10T09:09:57;25.60;59.30
47162;DHT22;32921;53.256;8.198;2023-06-10T09:12:24;25.70;60.20
47162;DHT22;32921;53.256;8.198;2023-06-10T09:14:49;26.10;57.40
47162;DHT22;32921;53.256;8.198;2023-06-10T09:17:16;26.90;55.10
47162;DHT22;32921;53.256;8.198;2023-06-10T09:19:42;26.90;54.30
47162;DHT22;32921;53.256;8.198;2023-06-10T09:22:09;27.40;54.40
47162;DHT22;32921;53.256;8.198;2023-06-10T09:24:35;27.40;53.50
47162;DHT22;32921;53.256;8.198;2023-06-10T09:27:05;27.90;53.20
47162;DHT22;32921;53.256;8.198;2023-06-10T09:29:53;28.40;52.50
47162;DHT22;32921;53.256;8.198;2023-06-10T09:32:20;28.50;51.60
47162;DHT22;32921;53.256;8.198;2023-06-10T09:34:46;28.90;50.50
47162;DHT22;32921;53.256;8.198;2023-06-10T09:37:12;27.50;52.30
47162;DHT22;32921;53.256;8.198;2023-06-10T09:39:40;25.90;55.40
47162;DHT22;32921;53.256;8.198;2023-06-10T09:42:18;26.20;58.50
47162;DHT22;32921;53.256;8.198;2023-06-10T09:44:51;27.20;53.80
47162;DHT22;32921;53.256;8.198;2023-06-10T09:47:21;27.70;52.70
47162;DHT22;32921;53.256;8.198;2023-06-10T09:49:50;28.00;51.30
47162;DHT22;32921;53.256;8.198;2023-06-10T09:52:27;28.20;51.80
47162;DHT22;32921;53.256;8.198;2023-06-10T09:55:02;28.20;52.50
47162;DHT22;32921;53.256;8.198;2023-06-10T09:57:32;27.60;52.00
47162;DHT22;32921;53.256;8.198;2023-06-10T09:59:59;27.80;51.30
47162;DHT22;32921;53.256;8.198;2023-06-10T10:02:25;27.90;52.30
47162;DHT22;32921;53.256;8.198;2023-06-10T10:04:50;28.50;50.30
47162;DHT22;32921;53.256;8.198;2023-06-10T10:07:16;27.90;52.00
47162;DHT22;32921;53.256;8.198;2023-06-10T10:09:42;28.50;50.60
47162;DHT22;32921;53.256;8.198;2023-06-10T10:12:11;28.80;48.70
47162;DHT22;32921;53.256;8.198;2023-06-10T10:14:38;29.00;48.60
47162;DHT22;32921;53.256;8.198;2023-06-10T10:17:11;29.40;47.40
47162;DHT22;32921;53.256;8.198;2023-06-10T10:19:46;28.80;47.70
47162;DHT22;32921;53.256;8.198;2023-06-10T10:22:25;28.70;47.30
47162;DHT22;32921;53.256;8.198;2023-06-10T10:25:00;27.10;50.70
47162;DHT22;32921;53.256;8.198;2023-06-10T10:27:30;27.20;52.10
47162;DHT22;32921;53.256;8.198;2023-06-10T10:29:58;27.70;50.10
47162;DHT22;32921;53.256;8.198;2023-06-10T10:32:35;28.20;50.00
47162;DHT22;32921;53.256;8.198;2023-06-10T10:35:19;28.80;47.40
47162;DHT22;32921;53.256;8.198;2023-06-10T10:37:47;28.30;46.80
47162;DHT22;32921;53.256;8.198;2023-06-10T10:40:13;28.30;48.50
47162;DHT22;32921;53.256;8.198;2023-06-10T10:42:40;28.70;50.00
47162;DHT22;32921;53.256;8.198;2023-06-10T10:45:07;29.40;46.80
47162;DHT22;32921;53.256;8.198;2023-06-10T10:47:34;29.80;46.30
47162;DHT22;32921;53.256;8.198;2023-06-10T10:50:01;29.10;46.40
47162;DHT22;32921;53.256;8.198;2023-06-10T10:52:50;29.20;46.00
47162;DHT22;32921;53.256;8.198;2023-06-10T10:55:16;29.20;47.30
47162;DHT22;32921;53.256;8.198;2023-06-10T10:57:43;28.90;48.10
47162;DHT22;32921;53.256;8.198;2023-06-10T11:00:11;27.70;48.80
47162;DHT22;32921;53.256;8.198;2023-06-10T11:02:37;27.00;50.60
47162;DHT22;32921;53.256;8.198;2023-06-10T11:05:06;28.10;48.10
47162;DHT22;32921;53.256;8.198;2023-06-10T11:07:33;28.50;47.30
47162;DHT22;32921;53.256;8.198;2023-06-10T11:10:17;29.10;46.80
47162;DHT22;32921;53.256;8.198;2023-06-10T11:15:22;30.10;43.40
47162;DHT22;32921;53.256;8.198;2023-06-10T11:18:23;31.10;42.30
47162;DHT22;32921;53.256;8.198;2023-06-10T11:23:38;30.40;39.80
47162;DHT22;32921;53.256;8.198;2023-06-10T11:31:22;30.50;40.70
47162;DHT22;32921;53.256;8.198;2023-06-10T11:33:52;30.70;40.90
47162;DHT22;32921;53.256;8.198;2023-06-10T11:36:18;30.00;41.70
47162;DHT22;32921;53.256;8.198;2023-06-10T11:38:44;30.00;41.30
47162;DHT22;32921;53.256;8.198;2023-06-10T11:41:11;29.80;41.60
47162;DHT22;32921;53.256;8.198;2023-06-10T11:43:45;30.30;40.00
47162;DHT22;32921;53.256;8.198;2023-06-10T11:46:12;29.90;40.30
47162;DHT22;32921;53.256;8.198;2023-06-10T11:48:38;30.50;38.70
47162;DHT22;32921;53.256;8.198;2023-06-10T11:51:07;29.80;40.00
47162;DHT22;32921;53.256;8.198;2023-06-10T11:53:33;30.60;37.70
47162;DHT22;32921;53.256;8.198;2023-06-10T11:55:59;30.90;36.40
47162;DHT22;32921;53.256;8.198;2023-06-10T11:58:25;31.70;36.20
47162;DHT22;32921;53.256;8.198;2023-06-10T12:00:52;32.40;35.60
47162;DHT22;32921;53.256;8.198;2023-06-10T12:03:19;30.60;35.90
47162;DHT22;32921;53.256;8.198;2023-06-10T12:05:59;30.60;37.30
47162;DHT22;32921;53.256;8.198;2023-06-10T12:08:25;29.80;39.80
47162;DHT22;32921;53.256;8.198;2023-06-10T12:10:51;29.80;38.90
47162;DHT22;32921;53.256;8.198;2023-06-10T12:13:17;30.60;38.00
47162;DHT22;32921;53.256;8.198;2023-06-10T12:15:45;31.70;36.60
47162;DHT22;32921;53.256;8.198;2023-06-10T12:18:23;31.60;36.20
47162;DHT22;32921;53.256;8.198;2023-06-10T12:20:50;33.00;34.60
47162;DHT22;32921;53.256;8.198;2023-06-10T12:23:17;34.10;33.40
47162;DHT22;32921;53.256;8.198;2023-06-10T12:25:53;32.70;33.90
47162;DHT22;32921;53.256;8.198;2023-06-10T12:28:23;33.50;33.50
47162;DHT22;32921;53.256;8.198;2023-06-10T12:30:49;34.40;32.90
47162;DHT22;32921;53.256;8.198;2023-06-10T12:33:19;31.60;33.40
47162;DHT22;32921;53.256;8.198;2023-06-10T12:35:52;32.70;33.30
47162;DHT22;32921;53.256;8.198;2023-06-10T12:38:25;33.50;32.30
47162;DHT22;32921;53.256;8.198;2023-06-10T12:40:53;32.80;31.90
47162;DHT22;32921;53.256;8.198;2023-06-10T12:43:22;31.70;32.70
47162;DHT22;32921;53.256;8.198;2023-06-10T12:45:49;32.00;33.30
47162;DHT22;32921;53.256;8.198;2023-06-10T12:48:20;33.30;31.70
47162;DHT22;32921;53.256;8.198;2023-06-10T12:50:57;33.80;29.80
47162;DHT22;32921;53.256;8.198;2023-06-10T12:53:23;33.80;29.10
47162;DHT22;32921;53.256;8.198;2023-06-10T12:55:50;33.00;29.60
47162;DHT22;32921;53.256;8.198;2023-06-10T12:58:16;33.20;28.70
47162;DHT22;32921;53.256;8.198;2023-06-10T13:00:42;35.10;27.90
47162;DHT22;32921;53.256;8.198;2023-06-10T13:03:09;35.50;27.50
47162;DHT22;32921;53.256;8.198;2023-06-10T13:05:36;33.30;28.20
47162;DHT22;32921;53.256;8.198;2023-06-10T13:08:05;32.90;27.90
47162;DHT22;32921;53.256;8.198;2023-06-10T13:10:32;33.90;27.40
47162;DHT22;32921;53.256;8.198;2023-06-10T13:12:59;33.20;28.20
47162;DHT22;32921;53.256;8.198;2023-06-10T13:15:25;33.40;28.10
47162;DHT22;32921;53.256;8.198;2023-06-10T13:17:52;34.00;29.00
47162;DHT22;32921;53.256;8.198;2023-06-10T13:20:18;33.40;28.10
47162;DHT22;32921;53.256;8.198;2023-06-10T13:22:43;35.10;27.00
47162;DHT22;32921;53.256;8.198;2023-06-10T13:25:09;35.50;26.70
47162;DHT22;32921;53.256;8.198;2023-06-10T13:27:36;35.60;25.90
47162;DHT22;32921;53.256;8.198;2023-06-10T13:30:06;34.80;26.30
47162;DHT22;32921;53.256;8.198;2023-06-10T13:32:32;36.10;25.20
47162;DHT22;32921;53.256;8.198;2023-06-10T13:34:57;36.80;25.00
47162;DHT22;32921;53.256;8.198;2023-06-10T13:37:23;35.80;25.10
47162;DHT22;32921;53.256;8.198;2023-06-10T13:39:49;34.50;25.70
47162;DHT22;32921;53.256;8.198;2023-06-10T13:42:19;31.70;27.50
47162;DHT22;32921;53.256;8.198;2023-06-10T13:44:46;31.50;27.70
47162;DHT22;32921;53.256;8.198;2023-06-10T13:47:13;32.60;26.90
47162;DHT22;32921;53.256;8.198;2023-06-10T13:49:39;34.60;26.50
47162;DHT22;32921;53.256;8.198;2023-06-10T13:52:06;35.00;25.10
47162;DHT22;32921;53.256;8.198;2023-06-10T13:54:32;35.20;25.20
47162;DHT22;32921;53.256;8.198;2023-06-10T13:56:57;33.80;26.20
47162;DHT22;32921;53.256;8.198;2023-06-10T13:59:23;33.20;27.00
47162;DHT22;32921;53.256;8.198;2023-06-10T14:01:49;32.90;27.20
47162;DHT22;32921;53.256;8.198;2023-06-10T14:04:14;34.20;25.80
47162;DHT22;32921;53.256;8.198;2023-06-10T14:06:40;33.60;25.30
47162;DHT22;32921;53.256;8.198;2023-06-10T14:09:05;36.00;24.40
47162;DHT22;32921;53.256;8.198;2023-06-10T14:11:31;36.50;23.30
47162;DHT22;32921;53.256;8.198;2023-06-10T14:13:57;37.20;23.10
47162;DHT22;32921;53.256;8.198;2023-06-10T14:16:24;36.70;23.30
47162;DHT22;32921;53.256;8.198;2023-06-10T14:18:50;36.70;22.50
47162;DHT22;32921;53.256;8.198;2023-06-10T14:21:16;36.80;22.40
47162;DHT22;32921;53.256;8.198;2023-06-10T14:23:42;34.40;25.30
47162;DHT22;32921;53.256;8.198;2023-06-10T14:26:09;34.50;25.00
47162;DHT22;32921;53.256;8.198;2023-06-10T14:28:35;33.10;24.80
47162;DHT22;32921;53.256;8.198;2023-06-10T14:31:01;32.70;25.50
47162;DHT22;32921;53.256;8.198;2023-06-10T14:33:26;34.50;24.30
47162;DHT22;32921;53.256;8.198;2023-06-10T14:35:52;34.80;24.00
47162;DHT22;32921;53.256;8.198;2023-06-10T14:38:17;35.30;23.90
47162;DHT22;32921;53.256;8.198;2023-06-10T14:40:43;36.80;22.10
47162;DHT22;32921;53.256;8.198;2023-06-10T14:43:09;37.00;22.50
47162;DHT22;32921;53.256;8.198;2023-06-10T14:45:39;36.00;22.80
47162;DHT22;32921;53.256;8.198;2023-06-10T14:48:06;35.00;23.70
47162;DHT22;32921;53.256;8.198;2023-06-10T14:50:32;34.60;23.40
47162;DHT22;32921;53.256;8.198;2023-06-10T14:52:58;34.10;24.00
47162;DHT22;32921;53.256;8.198;2023-06-10T14:55:24;33.50;24.20
47162;DHT22;32921;53.256;8.198;2023-06-10T14:57:49;34.40;23.80
47162;DHT22;32921;53.256;8.198;2023-06-10T15:00:15;34.20;24.40
47162;DHT22;32921;53.256;8.198;2023-06-10T15:02:44;33.50;24.30
47162;DHT22;32921;53.256;8.198;2023-06-10T15:05:12;34.40;24.30
47162;DHT22;32921;53.256;8.198;2023-06-10T15:07:37;35.40;23.30
47162;DHT22;32921;53.256;8.198;2023-06-10T15:10:03;36.50;22.20
47162;DHT22;32921;53.256;8.198;2023-06-10T15:12:29;36.70;22.20
47162;DHT22;32921;53.256;8.198;2023-06-10T15:14:54;36.40;23.40
47162;DHT22;32921;53.256;8.198;2023-06-10T15:17:20;37.30;21.80
47162;DHT22;32921;53.256;8.198;2023-06-10T15:19:45;35.90;22.90
47162;DHT22;32921;53.256;8.198;2023-06-10T15:22:11;37.10;22.40
47162;DHT22;32921;53.256;8.198;2023-06-10T15:24:38;36.80;22.30
47162;DHT22;32921;53.256;8.198;2023-06-10T15:27:04;36.40;23.20
47162;DHT22;32921;53.256;8.198;2023-06-10T15:29:30;35.60;22.30
47162;DHT22;32921;53.256;8.198;2023-06-10T15:31:56;34.90;22.90
47162;DHT22;32921;53.256;8.198;2023-06-10T15:34:22;34.40;23.50
47162;DHT22;32921;53.256;8.198;2023-06-10T15:36:47;35.10;22.70
47162;DHT22;32921;53.256;8.198;2023-06-10T15:39:13;34.50;23.60
47162;DHT22;32921;53.256;8.198;2023-06-10T15:41:38;35.30;23.40
47162;DHT22;32921;53.256;8.198;2023-06-10T15:44:04;34.00;24.50